Sangary, Russia
Current Conditions -  °F | °C
As of 3:00 AM on Friday 30 Jan 2015 (Local Time) from UEEE Reporting Station
Light Snow Light Snow  
Wind Chill: -36°   Ceiling: 20000
Heat Index: -36°   Visibility: 1.3mi
Dew Point: -42°   Wind: 0mph
Humidity: 75%   Direction: NA
Pressure: 29.97"   Gusts: NA
Location:  63.97°N, 127.47°E
Report Text: UEEE 291800Z 00000MPS 2100 -SN BR OVC200 M38/M41 Q1015 NOSIGRMK QFE752 23490150
Loading
Personal Weather Stations






























Interactive Weather Map New forecast layout! Learn more

10-Day Weather Forecast

Advertisements
Track Severe Weather on mobile